KCLL/CLL METAR and TAF weather

Enter ICAO airport designator
Station Type Date Time Source
KCLL METAR 2018/04/26 14:53 UTC NOAA

KCLL 261453Z 34009KT 10SM CLR 16/08 A3007 RMK AO2 SLP180 T01610078 50005


Station Type Date Time Source
KCLL Decoded METAR 2018/04/26 14:53 UTC NOAA

COLLEGE STN EASTERWOOD FIELD, TX, United States (KCLL) 30-35N 096-22W 96M
Apr 26, 2018 - 10:53 AM EDT / 2018.04.26 1453 UTC
Wind: from the NNW (340 degrees) at 10 MPH (9 KT):0
Visibility: 10 mile(s):0
Sky conditions: clear
Temperature: 61.0 F (16.1 C)
Dew Point: 46.0 F (7.8 C)
Relative Humidity: 57%
Pressure (altimeter): 30.07 in. Hg (1018 hPa)
Pressure tendency: 0.01 inches (0.5 hPa) higher than three hours ago
ob: KCLL 261453Z 34009KT 10SM CLR 16/08 A3007 RMK AO2 SLP180 T01610078 50005
cycle: 15

Station Type Date Time Source
KCLL TAF 2018/04/26 12:22 UTC NOAA

TAF KCLL 261120Z 2612/2712 34008KT P6SM SKC
FM270000 36004KT P6SM SCT250


Example: see airport list